Tiempo atmosférico en la estación meteorológica de El Pedregal, Guadalajara (1185 m.)



Fecha
DESCASC
Temp. máxima en grados centígrados (hora)
DESCASC
Temp. mínima en grados centígrados (hora)
DESCASC
Temp. media en grados centígrados
DESCASC
Racha de viento máxima en m/sg (hora)
DESCASC
Velocidad máxima media en intervalos de 10 minutos(hora)
DESCASC
Precipitaciones diarias en mm
DESCASC
Precipitaciones de 00:00 a 06:00 en mm
DESCASC
Precipitaciones de 06:00 a 12:00 en mm
DESCASC
Precipitaciones de 12:00 a 18:00 en mm
DESCASC
Precipitaciones de 18:00 a 24:00 en mm
DESCASC
22-04-2019 14 (17:30) 4.8 (06:00) 9.4 5.28 (12:10) 3.33 (11:50) 0.2 0 0 0.2 0
21-04-2019 5.9 (16:40) 3.2 (02:10) 4.6 8.61 (10:10) 5.56 (10:10) 7.2 4.6 0 1.6 1
20-04-2019 11.3 (14:10) 3.8 (23:50) 7.6 12.5 (12:10) 9.17 (00:50) 9.6 0 0 0 9.6
19-04-2019 9.8 (18:00) 4.6 (03:00) 7.2 16.67 (15:20) 11.39 (18:30) 20.2 9.8 10.2 0.2 0
18-04-2019 12.9 (14:20) 4.6 (00:00) 8.7 10 (18:30) 5.83 (18:30) 24.2 0 0.8 2.6 20.8
17-04-2019 -- (--) -- (--) -- -- (--) -- (--) -- -- -- -- 0
16-04-2019 -- (--) -- (--) -- -- (--) -- (--) -- -- -- -- --
15-04-2019 -- (--) -- (--) -- -- (--) -- (--) -- 0 0 -- --
14-04-2019 20.4 (16:50) 6.5 (00:00) 13.4 10.56 (11:50) 6.94 (11:50) 0 0 0 0 0
13-04-2019 18.2 (17:50) -0.5 (-00:0) 8.9 12.5 (15:50) 3.89 (05:20) 0 0 0 0 0
12-04-2019 13.7 (17:40) 0.6 (00:00) 7.1 9.44 (17:50) 4.17 (03:30) 0 0 0 0 0
11-04-2019 11.1 (18:40) 1 (00:00) 6.1 10 (17:30) 5.83 (17:30) 0 0 0 0 0
10-04-2019 9.2 (15:00) 1.8 (00:00) 5.5 11.11 (12:40) 6.39 (13:20) 0 0 0 0 0
09-04-2019 8.9 (15:20) 1.2 (00:00) 5 12.78 (14:10) 7.78 (14:10) 5.4 1.8 0 0.2 3.4
08-04-2019 12.2 (19:20) 3.5 (00:00) 7.8 14.17 (15:20) 7.5 (09:40) 1 0.4 0.4 0.2 0
07-04-2019 9.1 (17:10) 0.8 (00:00) 5 11.67 (05:30) 6.39 (05:20) 0.4 0.4 0 0 0
06-04-2019 6.8 (17:10) 0.2 (00:00) 3.5 14.17 (12:40) 8.61 (12:10) 6 0.6 1.4 0.2 3.8
05-04-2019 8.5 (14:00) 0.2 (00:00) 4.4 12.5 (21:10) 6.67 (17:30) 2.8 0 0 0.2 2.6
04-04-2019 11.5 (16:50) -2.5 (-00:0) 4.5 8.33 (09:10) 5 (08:50) 0 0 0 0 0
03-04-2019 10.1 (12:20) 0.5 (00:00) 5.3 11.11 (12:20) 5.83 (12:40) 0.8 0 0 0.6 0.2
02-04-2019 14.8 (17:30) 4.3 (00:00) 9.6 8.89 (18:00) 5 (06:50) 6 0 6 0 0
01-04-2019 10.2 (16:00) 4.5 (00:00) 7.3 7.22 (14:50) 3.89 (14:50) 6 1 1 2.2 1.8
31-03-2019 7.3 (12:40) 1.3 (00:00) 4.3 6.67 (13:20) 5 (14:10) 12.2 0 0 9 3.2
30-03-2019 15.7 (15:00) -2.1 (-00:0) 6.8 9.44 (19:50) 5.28 (19:50) 0 0 0 0 0
29-03-2019 15.4 (15:00) -2.3 (-00:0) 6.5 11.67 (16:30) 6.94 (16:30) 0 0 0 0 0
28-03-2019 16.2 (16:40) -2.5 (-00:0) 6.9 7.22 (15:20) 4.17 (20:30) 0 0 0 0 0
27-03-2019 15.6 (17:10) -4.8 (-00:0) 5.4 8.06 (16:40) 3.89 (16:50) 0 0 0 0 0
26-03-2019 16.1 (17:00) -4.2 (-00:0) 6 9.72 (14:30) 5.83 (18:00) 0 0 0 0 0
25-03-2019 16.5 (16:00) -1.3 (-00:0) 7.6 7.78 (14:50) 4.17 (15:20) 0 0 0 0 0

Gráficas

Temp. máximas Temp. mínimas Temp. medias Precipitaciones Rachas de viento máximas Velocidades máximas media en intervalos de 10 minutos

Datos horarios

Fecha y hora oficial Temperatura (ºC) Velocidad del viento (km/h) Dirección del viento Racha (km/h) Dirección de racha Precipitación (mm) Presión (hPa) Tendencia (hPa) Humedad (%)
2019-04-23 23:00:00 3.1 9 Oeste 28 Sudoeste 0 -- -- 85
2019-04-23 22:00:00 2.4 19 Sudoeste 55 Oeste 0.4 -- -- 87
2019-04-23 21:00:00 3.2 19 Sudoeste 52 Oeste 0.2 -- -- 86
2019-04-23 20:00:00 5.3 27 Sudoeste 47 Sudoeste 0 -- -- 76
2019-04-23 19:00:00 8.8 15 Sudoeste 37 Sudoeste 0.2 -- -- 63
2019-04-23 18:00:00 8.4 14 Oeste 39 Sudoeste 0 -- -- 71
2019-04-23 17:00:00 10.1 15 Sur 40 Sudoeste 0 -- -- 52
2019-04-23 16:00:00 10.2 22 Sudoeste 41 Sudoeste 0 -- -- 57
2019-04-23 15:00:00 9.7 21 Sudoeste 42 Sudoeste 0 -- -- 61
2019-04-23 14:00:00 9 21 Oeste 49 Oeste 0 -- -- 70
2019-04-23 13:00:00 11.2 13 Sudoeste 30 Sur 0 -- -- 62
2019-04-23 12:00:00 9.8 14 Sudoeste 30 Sudoeste 0 -- -- 68
2019-04-23 11:00:00 9.7 11 Sudoeste 19 Sur 0 -- -- 70
2019-04-23 10:00:00 9.9 7 Sudoeste 18 Sudoeste 0 -- -- 67
2019-04-23 09:00:00 8.6 5 Sudoeste 17 Sudoeste 0 -- -- 73
2019-04-23 08:00:00 8.3 12 Sudoeste 41 Sudoeste 0 -- -- 75
2019-04-23 07:00:00 8.2 15 Sudoeste 31 Sudoeste 0 -- -- 75
2019-04-23 06:00:00 7.9 9 Sudoeste 35 Sudoeste 0 -- -- 75
2019-04-23 05:00:00 8.7 19 Sudoeste 42 Sudoeste 0 -- -- 75
2019-04-23 04:00:00 8.1 10 Sudoeste 26 Sudoeste 0 -- -- 81
2019-04-23 03:00:00 7.9 8 Sudoeste 24 Sudoeste 0 -- -- 79
2019-04-23 02:00:00 8.2 13 Sudoeste 28 Sudoeste 0 -- -- 78
2019-04-23 01:00:00 8.4 13 Sudoeste 25 Sudoeste 0 -- -- 78
2019-04-23 00:00:00 7.4 4 Oeste 13 Sudoeste 0 -- -- 86
2019-04-22 23:00:00 8.2 3 Oeste 9 Sur 0 -- -- 86
2019-04-22 22:00:00 9.2 4 Sudeste 7 Sudeste 0 -- -- 84
2019-04-22 21:00:00 9.5 3 Sudeste 10 Sudeste 0 -- -- 84
2019-04-22 20:00:00 10 7 Este 14 Este 0 -- -- 80
2019-04-22 19:00:00 11.1 9 Este 13 Este 0 -- -- 74
2019-04-22 18:00:00 12.6 3 Noroeste 12 Oeste 0 -- -- 61
2019-04-22 17:00:00 13.3 2 Sudeste 9 Nordeste 0 -- -- 59
2019-04-22 16:00:00 10.2 6 Nordeste 10 Nordeste 0 -- -- 72
2019-04-22 15:00:00 10.2 3 Sudeste 14 Este 0 -- -- 70
2019-04-22 14:00:00 8.7 6 Sudeste 12 Nordeste 0 -- -- 78
2019-04-22 13:00:00 8.2 6 Nordeste 19 Este 0.2 -- -- 77
2019-04-22 12:00:00 8.7 10 Este 18 Este 0 -- -- 75
2019-04-22 11:00:00 8.1 7 Nordeste 11 Este 0 -- -- 77
2019-04-22 10:00:00 7.2 4 Nordeste 9 Nordeste 0 -- -- 86
2019-04-22 09:00:00 6.5 0 Calma 5 Oeste 0 -- -- 94
2019-04-22 08:00:00 5.1 2 Oeste 5 Oeste 0 -- -- 96
2019-04-22 07:00:00 4.8 3 Oeste 6 Noroeste 0 -- -- 96
2019-04-22 06:00:00 4.8 2 Norte 9 Norte 0 -- -- 96
2019-04-22 05:00:00 5 5 Norte 12 Norte 0 -- -- 96
2019-04-22 04:00:00 5.2 5 Nordeste 12 Norte 0 -- -- 96
2019-04-22 03:00:00 5.2 5 Nordeste 12 Nordeste 0 -- -- 96
2019-04-22 02:00:00 5.3 6 Nordeste 13 Nordeste 0 -- -- 97
2019-04-22 01:00:00 5.3 10 Nordeste 16 Nordeste 0 -- -- 97
2019-04-22 00:00:00 5.3 10 Nordeste 19 Nordeste 0 -- -- 98
2019-04-21 23:00:00 5.3 10 Nordeste 18 Nordeste 0 -- -- 97
2019-04-21 22:00:00 5.4 13 Nordeste 21 Nordeste 0.2 -- -- 97
2019-04-21 21:00:00 5.5 13 Nordeste 19 Nordeste 0.4 -- -- 97
2019-04-21 20:00:00 5.4 11 Nordeste 22 Nordeste 0.2 -- -- 96
2019-04-21 19:00:00 5.4 12 Nordeste 22 Nordeste 0.2 -- -- 95
2019-04-21 18:00:00 5.5 18 Nordeste 25 Nordeste 1 -- -- 94
2019-04-21 17:00:00 5.8 13 Nordeste 21 Nordeste 0.2 -- -- 94
2019-04-21 16:00:00 5.5 14 Nordeste 22 Nordeste 0 -- -- 96
2019-04-21 15:00:00 5 13 Nordeste 20 Nordeste 0 -- -- 96
2019-04-21 14:00:00 4.8 13 Nordeste 21 Nordeste 0.4 -- -- 96
2019-04-21 13:00:00 4.8 13 Nordeste 22 Nordeste 0 -- -- 96
2019-04-21 12:00:00 4.8 12 Nordeste 24 Nordeste 0 -- -- 95
2019-04-21 11:00:00 4.6 13 Nordeste 31 Nordeste 0 -- -- 95
2019-04-21 10:00:00 4.5 15 Nordeste 26 Nordeste 0 -- -- 96
2019-04-21 09:00:00 4.3 16 Este 25 Este 0 -- -- 97
2019-04-21 08:00:00 4.1 18 Nordeste 26 Nordeste 0 -- -- 97
2019-04-21 07:00:00 4.1 16 Nordeste 27 Nordeste 0 -- -- 96
2019-04-21 06:00:00 4 15 Nordeste 24 Nordeste 0 -- -- 97
2019-04-21 05:00:00 4 17 Este 26 Este 0 -- -- 97
2019-04-21 04:00:00 3.4 10 Nordeste 15 Este 1 -- -- 97
2019-04-21 03:00:00 3.4 7 Nordeste 12 Nordeste 0.4 -- -- 96
2019-04-21 02:00:00 3.3 8 Nordeste 18 Sudeste 1.4 -- -- 95
2019-04-21 01:00:00 3.3 13 Sudeste 27 Este 1.8 -- -- 94
2019-04-21 00:00:00 3.8 15 Este 27 Sudeste 2.4 -- -- 96
2019-04-20 23:00:00 4.3 18 Este 30 Sudeste 2 -- -- 95
2019-04-20 22:00:00 4.5 12 Sudeste 20 Este 0.8 -- -- 95
2019-04-20 21:00:00 4.6 15 Este 28 Sudeste 1.6 -- -- 94
2019-04-20 20:00:00 5.1 15 Este 30 Sudeste 1.8 -- -- 93
2019-04-20 19:00:00 5.8 22 Sudeste 41 Sudeste 1 -- -- 88
2019-04-20 18:00:00 9.5 21 Este 39 Este 0 -- -- 60
2019-04-20 17:00:00 10 18 Este 43 Este 0 -- -- 60
2019-04-20 16:00:00 10.6 21 Este 44 Este 0 -- -- 59
2019-04-20 15:00:00 10.8 30 Este 45 Este 0 -- -- 62
2019-04-20 14:00:00 11.1 26 Este 39 Este 0 -- -- 60
2019-04-20 13:00:00 9.7 27 Este 45 Este 0 -- -- 65
2019-04-20 12:00:00 10 18 Este 39 Nordeste 0 -- -- 64
2019-04-20 11:00:00 9.8 21 Nordeste 33 Este 0 -- -- 67
2019-04-20 10:00:00 8.6 12 Nordeste 31 Este 0 -- -- 74
2019-04-20 09:00:00 7.2 16 Este 26 Este 0 -- -- 76
2019-04-20 08:00:00 7 13 Este 25 Este 0 -- -- 77
2019-04-20 07:00:00 6.8 13 Nordeste 23 Nordeste 0 -- -- 79
2019-04-20 06:00:00 6.5 20 Este 25 Nordeste 0 -- -- 83
2019-04-20 05:00:00 6.4 12 Nordeste 21 Nordeste 0 -- -- 87
2019-04-20 04:00:00 6.4 16 Nordeste 36 Nordeste 0 -- -- 87
2019-04-20 03:00:00 6.6 19 Nordeste 43 Este 0 -- -- 84
2019-04-20 02:00:00 6.6 27 Este 42 Este 0 -- -- 84
2019-04-20 01:00:00 6.6 32 Este 44 Este 0 -- -- 82
2019-04-20 00:00:00 6.8 20 Este 36 Este 0 -- -- 81
2019-04-19 23:00:00 7.3 27 Este 48 Este 0 -- -- 79
2019-04-19 22:00:00 7.6 27 Este 41 Este 0 -- -- 78
2019-04-19 21:00:00 8 24 Este 42 Este 0 -- -- 78
2019-04-19 20:00:00 9.2 30 Este 47 Este 0 -- -- 73
2019-04-19 19:00:00 9.2 29 Este 60 Sudeste 0 -- -- 75
2019-04-19 18:00:00 9.8 37 Este 51 Este 0 -- -- 76
2019-04-19 17:00:00 8.8 33 Sudeste 48 Sudeste 0 -- -- 79
2019-04-19 16:00:00 7.7 33 Este 60 Este 0 -- -- 88
2019-04-19 15:00:00 7.3 33 Este 48 Este 0 -- -- 97
2019-04-19 14:00:00 7.1 27 Este 46 Este 0 -- -- 97
2019-04-19 13:00:00 7.6 28 Este 40 Este 0.2 -- -- 98
2019-04-19 12:00:00 6.6 9 Nordeste 15 Nordeste 0.4 -- -- 98
2019-04-19 11:00:00 6.5 6 Norte 11 Nordeste 1.8 -- -- 97
2019-04-19 10:00:00 6.4 6 Nordeste 15 Nordeste 1 -- -- 97
2019-04-19 09:00:00 6.1 8 Nordeste 14 Nordeste 2 -- -- 97
2019-04-19 08:00:00 6.2 3 Sudeste 18 Sudeste 2.8 -- -- 97
2019-04-19 07:00:00 6.3 14 Sudeste 25 Sudeste 2.2 -- -- 97
2019-04-19 06:00:00 6.2 11 Este 19 Sudeste 2.2 -- -- 97
2019-04-19 05:00:00 5.1 3 Oeste 6 Oeste 2.8 -- -- 97
2019-04-19 04:00:00 4.8 2 Noroeste 12 Sudoeste 2 -- -- 97
2019-04-19 03:00:00 4.6 9 Sudoeste 14 Sudoeste 2 -- -- 97
2019-04-19 02:00:00 5.2 2 Norte 12 Nordeste 0.4 -- -- 97
2019-04-19 01:00:00 5.2 8 Este 15 Este 0.4 -- -- 97
2019-04-19 00:00:00 5.1 4 Sudeste 9 Este 0.6 -- -- 97
2019-04-18 23:00:00 4.8 2 Sudeste 5 Este 2 -- -- 97
2019-04-18 22:00:00 4.6 0 Calma 19 Oeste 2.8 -- -- 97
2019-04-18 21:00:00 5.2 9 Oeste 24 Oeste 4.8 -- -- 97
2019-04-18 20:00:00 5.1 14 Oeste 29 Sudoeste 5.6 -- -- 96
2019-04-18 19:00:00 5.3 17 Oeste 36 Sudoeste 5 -- -- 94
2019-04-18 18:00:00 7.1 13 Oeste 21 Oeste 1.6 -- -- 90
2019-04-18 17:00:00 8.6 7 Sudeste 21 Sur 1 -- -- 87
2019-04-18 16:00:00 11.3 10 Sur 20 Sudeste 0 -- -- 65
2019-04-18 15:00:00 11.3 8 Sudeste 19 Este 0 -- -- 61
2019-04-18 14:00:00 12 8 Este 24 Este 0 -- -- 63
2019-04-18 13:00:00 11.6 11 Nordeste 22 Nordeste 0 -- -- 64
2019-04-18 12:00:00 11.8 12 Nordeste 18 Norte 0 -- -- 70
2019-04-18 11:00:00 11.1 6 Nordeste 14 Sudoeste 0 -- -- 78
2019-04-18 10:00:00 9.4 10 Oeste 19 Oeste 0.2 -- -- 85
2019-04-18 09:00:00 7.9 6 Sudoeste 17 Este 0.2 -- -- 80
2019-04-18 08:00:00 7.2 5 Este 17 Este 0.4 -- -- 82
2019-04-18 07:00:00 7.2 2 Norte 6 Oeste 0 -- -- 84
2019-04-18 06:00:00 7.3 0 Calma 5 Oeste 0 -- -- 81
2019-04-18 05:00:00 8.4 0 Calma 8 Norte 0 -- -- 76
2019-04-18 04:00:00 9.5 4 Nordeste 15 Sudeste 0 -- -- 71
2019-04-18 03:00:00 8.8 0 Calma 8 Sudoeste 0 -- -- 78
2019-04-18 02:00:00 9.5 0 Calma 7 Sudeste 0 -- -- 74
2019-04-18 01:00:00 10.1 4 Sudeste 22 Sudeste 0 -- -- 70
2019-04-18 00:00:00 11.2 5 Sudeste 29 Sudoeste 0 -- -- 63
2019-04-17 23:00:00 13.1 17 Sudoeste 38 Sur 0 -- -- 51
2019-04-17 22:00:00 16 22 Sur 41 Sudoeste 0 -- -- 39
2019-04-17 21:00:00 14 12 Sudeste 33 Sudeste 0 -- -- 50
2019-04-17 20:00:00 16.5 17 Sudeste 29 Sudeste 0 -- -- 41
2019-04-17 19:00:00 17.8 15 Sudeste 35 Sudeste 0 -- -- 44
2019-04-17 18:00:00 20.9 18 Sur 41 Sudeste 0.4 -- -- 31
2019-04-17 17:00:00 -- -- -- -- -- -- -- -- --
2019-04-17 16:00:00 -- -- -- -- -- -- -- -- --
2019-04-17 15:00:00 -- -- -- -- -- -- -- -- --
2019-04-17 14:00:00 -- -- -- -- -- -- -- -- --
2019-04-17 13:00:00 -- -- -- -- -- -- -- -- --
2019-04-17 12:00:00 -- -- -- -- -- -- -- -- --
2019-04-17 11:00:00 -- -- -- -- -- -- -- -- --
2019-04-17 10:00:00 -- -- -- -- -- -- -- -- --
2019-04-17 09:00:00 -- -- -- -- -- -- -- -- --
2019-04-17 08:00:00 -- -- -- -- -- -- -- -- --
2019-04-17 07:00:00 -- -- -- -- -- -- -- -- --
2019-04-17 06:00:00 -- -- -- -- -- -- -- -- --
2019-04-17 05:00:00 -- -- -- -- -- -- -- -- --
2019-04-17 04:00:00 -- -- -- -- -- -- -- -- --
2019-04-17 03:00:00 -- -- -- -- -- -- -- -- --
2019-04-17 02:00:00 -- -- -- -- -- -- -- -- --
2019-04-17 01:00:00 -- -- -- -- -- -- -- -- --
2019-04-17 00:00:00 -- -- -- -- -- -- -- -- --
2019-04-16 23:00:00 -- -- -- -- -- -- -- -- --
2019-04-16 22:00:00 -- -- -- -- -- -- -- -- --
2019-04-16 21:00:00 -- -- -- -- -- -- -- -- --
2019-04-16 20:00:00 -- -- -- -- -- -- -- -- --
2019-04-16 19:00:00 -- -- -- -- -- -- -- -- --
2019-04-16 18:00:00 -- -- -- -- -- -- -- -- --
2019-04-16 17:00:00 -- -- -- -- -- -- -- -- --
2019-04-16 16:00:00 -- -- -- -- -- -- -- -- --
2019-04-16 15:00:00 -- -- -- -- -- -- -- -- --
2019-04-16 14:00:00 -- -- -- -- -- -- -- -- --
2019-04-16 13:00:00 -- -- -- -- -- -- -- -- --
2019-04-16 12:00:00 -- -- -- -- -- -- -- -- --
2019-04-16 11:00:00 -- -- -- -- -- -- -- -- --
2019-04-16 10:00:00 -- -- -- -- -- -- -- -- --
2019-04-16 09:00:00 -- -- -- -- -- -- -- -- --
2019-04-16 08:00:00 -- -- -- -- -- -- -- -- --
2019-04-16 07:00:00 -- -- -- -- -- -- -- -- --
2019-04-16 06:00:00 -- -- -- -- -- -- -- -- --
2019-04-16 05:00:00 -- -- -- -- -- -- -- -- --
2019-04-16 04:00:00 -- -- -- -- -- -- -- -- --
2019-04-16 03:00:00 -- -- -- -- -- -- -- -- --
2019-04-16 02:00:00 -- -- -- -- -- -- -- -- --
2019-04-16 01:00:00 -- -- -- -- -- -- -- -- --
2019-04-16 00:00:00 -- -- -- -- -- -- -- -- --
2019-04-15 23:00:00 -- -- -- -- -- -- -- -- --
2019-04-15 22:00:00 -- -- -- -- -- -- -- -- --
2019-04-15 21:00:00 -- -- -- -- -- -- -- -- --
2019-04-15 20:00:00 -- -- -- -- -- -- -- -- --
2019-04-15 19:00:00 -- -- -- -- -- -- -- -- --
2019-04-15 18:00:00 -- -- -- -- -- -- -- -- --
2019-04-15 17:00:00 -- -- -- -- -- -- -- -- --
2019-04-15 16:00:00 -- -- -- -- -- -- -- -- --
2019-04-15 15:00:00 -- -- -- -- -- -- -- -- --
2019-04-15 14:00:00 20.1 16 Sudoeste 30 Sudoeste 0 -- -- 42
2019-04-15 13:00:00 19.6 14 Sur 29 Sudoeste 0 -- -- 44
2019-04-15 12:00:00 18.2 14 Sudoeste 33 Sudoeste 0 -- -- 47
2019-04-15 11:00:00 18.3 13 Sudoeste 27 Sudoeste 0 -- -- 50
2019-04-15 10:00:00 16.1 9 Este 14 Este 0 -- -- 60
2019-04-15 09:00:00 14.8 10 Oeste 17 Sudoeste 0 -- -- 61
2019-04-15 08:00:00 12.4 6 Sudeste 21 Sudoeste 0 -- -- 66
2019-04-15 07:00:00 9.8 5 Sur 13 Sudoeste 0 -- -- 77
2019-04-15 06:00:00 8.6 0 Calma 9 Sur 0 -- -- 80
2019-04-15 05:00:00 10.9 4 Sudoeste 17 Sudoeste 0 -- -- 71
2019-04-15 04:00:00 7.7 3 Norte 8 Oeste 0 -- -- 86
2019-04-15 03:00:00 7.1 4 Oeste 7 Oeste 0 -- -- 87
2019-04-15 02:00:00 8 0 Calma 8 Oeste 0 -- -- 83
2019-04-15 01:00:00 7.5 3 Oeste 6 Oeste 0 -- -- 85
2019-04-15 00:00:00 8.2 4 Sudoeste 6 Sudoeste 0 -- -- 81
2019-04-14 23:00:00 10.6 2 Sudoeste 4 Oeste 0 -- -- 73
2019-04-14 22:00:00 12.2 0 Calma 8 Noroeste 0 -- -- 68
2019-04-14 21:00:00 14.9 5 Noroeste 14 Noroeste 0 -- -- 57
2019-04-14 20:00:00 16.5 10 Norte 21 Norte 0 -- -- 56
2019-04-14 19:00:00 18 14 Norte 23 Noroeste 0 -- -- 52
2019-04-14 18:00:00 19.5 10 Noroeste 26 Oeste 0 -- -- 44
2019-04-14 17:00:00 20.4 13 Noroeste 31 Oeste 0 -- -- 42
2019-04-14 16:00:00 18.9 16 Noroeste 31 Oeste 0 -- -- 45
2019-04-14 15:00:00 18.8 17 Noroeste 32 Oeste 0 -- -- 48
2019-04-14 14:00:00 17.6 16 Noroeste 36 Oeste 0 -- -- 52
2019-04-14 13:00:00 16.1 19 Oeste 37 Oeste 0 -- -- 54
2019-04-14 12:00:00 14.7 22 Oeste 38 Oeste 0 -- -- 59
2019-04-14 11:00:00 12.8 23 Oeste 35 Oeste 0 -- -- 54
2019-04-14 10:00:00 11.1 15 Oeste 27 Oeste 0 -- -- 45
2019-04-14 09:00:00 10.3 9 Noroeste 23 Oeste 0 -- -- 40
2019-04-14 08:00:00 6.7 17 Oeste 23 Oeste 0 -- -- 43
2019-04-14 07:00:00 6.8 13 Noroeste 20 Oeste 0 -- -- 45
2019-04-14 06:00:00 7.3 12 Oeste 20 Oeste 0 -- -- 38
2019-04-14 05:00:00 7.2 14 Oeste 21 Oeste 0 -- -- 37
2019-04-14 04:00:00 7.3 15 Oeste 18 Oeste 0 -- -- 37
2019-04-14 03:00:00 7.1 11 Oeste 17 Oeste 0 -- -- 37
2019-04-14 02:00:00 6.9 12 Noroeste 18 Noroeste 0 -- -- 41
2019-04-14 01:00:00 7.5 12 Noroeste 18 Oeste 0 -- -- 38
2019-04-14 00:00:00 8.1 13 Noroeste 18 Noroeste 0 -- -- 35
2019-04-13 23:00:00 8.9 9 Oeste 15 Oeste 0 -- -- 32
2019-04-13 22:00:00 7.4 10 Oeste 14 Oeste 0 -- -- 38
2019-04-13 21:00:00 10.1 4 Oeste 10 Oeste 0 -- -- 33
2019-04-13 20:00:00 17.2 4 Noroeste 17 Noroeste 0 -- -- 16
2019-04-13 19:00:00 18.1 5 Norte 19 Norte 0 -- -- 15
2019-04-13 18:00:00 17.4 10 Noroeste 26 Oeste 0 -- -- 13
2019-04-13 17:00:00 17.8 6 Nordeste 24 Norte 0 -- -- 18
2019-04-13 16:00:00 16.8 7 Norte 45 Norte 0 -- -- 19
2019-04-13 15:00:00 15.9 10 Noroeste 24 Noroeste 0 -- -- 19
2019-04-13 14:00:00 15.5 9 Norte 35 Noroeste 0 -- -- 20
2019-04-13 13:00:00 13.8 10 Noroeste 21 Noroeste 0 -- -- 20
2019-04-13 12:00:00 12.7 10 Noroeste 21 Noroeste 0 -- -- 22
2019-04-13 11:00:00 10.6 8 Oeste 18 Oeste 0 -- -- 32
2019-04-13 10:00:00 7.7 10 Oeste 18 Oeste 0 -- -- 37
2019-04-13 09:00:00 4.9 6 Noroeste 11 Oeste 0 -- -- 47
2019-04-13 08:00:00 0.4 4 Oeste 16 Oeste 0 -- -- 64
2019-04-13 07:00:00 0.1 7 Oeste 15 Oeste 0 -- -- 65
2019-04-13 06:00:00 1.5 12 Oeste 19 Oeste 0 -- -- 60
2019-04-13 05:00:00 0.2 5 Oeste 14 Oeste 0 -- -- 74
2019-04-13 04:00:00 1.4 10 Oeste 14 Oeste 0 -- -- 72
2019-04-13 03:00:00 0.9 9 Oeste 12 Oeste 0 -- -- 76
2019-04-13 02:00:00 0.7 0 Calma 11 Sudoeste 0 -- -- 81
2019-04-13 01:00:00 1.7 6 Oeste 9 Oeste 0 -- -- 79
2019-04-13 00:00:00 1.7 7 Oeste 10 Oeste 0 -- -- 78
2019-04-12 23:00:00 2.2 4 Oeste 6 Oeste 0 -- -- 73
2019-04-12 22:00:00 4.9 0 Calma 13 Oeste 0 -- -- 58
2019-04-12 21:00:00 8.1 9 Oeste 24 Noroeste 0 -- -- 45
2019-04-12 20:00:00 11.9 10 Noroeste 30 Noroeste 0 -- -- 28
2019-04-12 19:00:00 13.4 9 Noroeste 24 Noroeste 0 -- -- 30
2019-04-12 18:00:00 13.3 11 Norte 34 Oeste 0 -- -- 37
2019-04-12 17:00:00 12.9 12 Noroeste 31 Oeste 0 -- -- 42
2019-04-12 16:00:00 11.9 9 Noroeste 25 Nordeste 0 -- -- 44
2019-04-12 15:00:00 10.8 10 Norte 24 Noroeste 0 -- -- 49
2019-04-12 14:00:00 8.9 7 Noroeste 30 Oeste 0 -- -- 54
2019-04-12 13:00:00 7.8 13 Norte 26 Norte 0 -- -- 60
2019-04-12 12:00:00 7 13 Norte 21 Norte 0 -- -- 63
2019-04-12 11:00:00 5.5 10 Norte 19 Norte 0 -- -- 71
2019-04-12 10:00:00 4.7 12 Oeste 21 Oeste 0 -- -- 76
2019-04-12 09:00:00 2.5 10 Oeste 20 Oeste 0 -- -- 84
2019-04-12 08:00:00 0.8 7 Oeste 21 Oeste 0 -- -- 90
2019-04-12 07:00:00 1.2 13 Oeste 20 Oeste 0 -- -- 87
2019-04-12 06:00:00 2.2 12 Oeste 20 Oeste 0 -- -- 84
2019-04-12 05:00:00 2.3 12 Oeste 19 Oeste 0 -- -- 84
2019-04-12 04:00:00 1.5 10 Oeste 22 Oeste 0 -- -- 87
2019-04-12 03:00:00 1.1 12 Oeste 16 Noroeste 0 -- -- 88
2019-04-12 02:00:00 1.9 11 Oeste 17 Oeste 0 -- -- 86
2019-04-12 01:00:00 2.4 8 Oeste 18 Oeste 0 -- -- 85
2019-04-12 00:00:00 3 12 Oeste 18 Noroeste 0 -- -- 82
2019-04-11 23:00:00 4.2 11 Noroeste 25 Norte 0 -- -- 77
2019-04-11 22:00:00 5 8 Noroeste 23 Norte 0 -- -- 72
2019-04-11 21:00:00 5.9 10 Noroeste 27 Norte 0 -- -- 68
2019-04-11 20:00:00 7.7 15 Norte 30 Norte 0 -- -- 61
2019-04-11 19:00:00 10.6 16 Norte 33 Noroeste 0 -- -- 54
2019-04-11 18:00:00 9.4 15 Noroeste 36 Norte 0 -- -- 52
2019-04-11 17:00:00 9.7 18 Noroeste 34 Noroeste 0 -- -- 50
2019-04-11 16:00:00 9.2 17 Noroeste 35 Norte 0 -- -- 54
2019-04-11 15:00:00 9.6 19 Norte 34 Norte 0 -- -- 52
2019-04-11 14:00:00 9 14 Norte 29 Norte 0 -- -- 52
2019-04-11 13:00:00 8.2 12 Noroeste 31 Noroeste 0 -- -- 60
2019-04-11 12:00:00 6.2 13 Noroeste 27 Noroeste 0 -- -- 67
2019-04-11 11:00:00 4.6 15 Noroeste 26 Oeste 0 -- -- 75
2019-04-11 10:00:00 3.2 13 Noroeste 24 Oeste 0 -- -- 84
2019-04-11 09:00:00 2.3 15 Oeste 22 Oeste 0 -- -- 89
2019-04-11 08:00:00 1.7 14 Oeste 21 Oeste 0 -- -- 91
2019-04-11 07:00:00 1.2 11 Oeste 21 Oeste 0 -- -- 92
2019-04-11 06:00:00 1.4 11 Oeste 22 Sudoeste 0 -- -- 90
2019-04-11 05:00:00 1.5 15 Oeste 24 Oeste 0 -- -- 89
2019-04-11 04:00:00 1.6 15 Oeste 24 Oeste 0 -- -- 90
2019-04-11 03:00:00 1.7 15 Oeste 23 Oeste 0 -- -- 90
2019-04-11 02:00:00 1.8 15 Oeste 20 Oeste 0 -- -- 90
2019-04-11 01:00:00 2.5 13 Oeste 19 Oeste 0 -- -- 88
2019-04-11 00:00:00 3.8 10 Noroeste 20 Noroeste 0 -- -- 82
2019-04-10 23:00:00 5.1 9 Noroeste 16 Norte 0 -- -- 81
2019-04-10 22:00:00 4.7 9 Oeste 19 Oeste 0 -- -- 82
2019-04-10 21:00:00 5.2 11 Oeste 21 Oeste 0 -- -- 82
2019-04-10 20:00:00 6.9 12 Noroeste 27 Noroeste 0 -- -- 71
2019-04-10 19:00:00 6.4 17 Noroeste 34 Noroeste 0 -- -- 72
2019-04-10 18:00:00 5.9 21 Noroeste 34 Noroeste 0 -- -- 75
2019-04-10 17:00:00 6.2 14 Norte 35 Norte 0 -- -- 77
2019-04-10 16:00:00 7.2 18 Norte 32 Oeste 0 -- -- 71
2019-04-10 15:00:00 9.2 12 Noroeste 35 Noroeste 0 -- -- 53
2019-04-10 14:00:00 7.8 15 Noroeste 40 Noroeste 0 -- -- 64
2019-04-10 13:00:00 6.6 20 Noroeste 40 Noroeste 0 -- -- 64
2019-04-10 12:00:00 6.7 18 Noroeste 36 Oeste 0 -- -- 68
2019-04-10 11:00:00 4.5 18 Noroeste 33 Oeste 0 -- -- 75
2019-04-10 10:00:00 4.3 19 Oeste 34 Oeste 0 -- -- 80
2019-04-10 09:00:00 3.1 19 Oeste 30 Oeste 0 -- -- 91
2019-04-10 08:00:00 2.1 18 Oeste 34 Oeste 0 -- -- 92
2019-04-10 07:00:00 2.1 14 Oeste 24 Oeste 0 -- -- 93
2019-04-10 06:00:00 1.9 10 Noroeste 26 Oeste 0 -- -- 93
2019-04-10 05:00:00 1.8 14 Oeste 30 Oeste 0 -- -- 94
2019-04-10 04:00:00 2.3 14 Oeste 28 Noroeste 0 -- -- 92
2019-04-10 03:00:00 2.5 14 Oeste 28 Oeste 0 -- -- 92
2019-04-10 02:00:00 2.5 14 Oeste 21 Oeste 0 -- -- 91
2019-04-10 01:00:00 2.4 13 Oeste 21 Oeste 0 -- -- 90
2019-04-10 00:00:00 2.4 11 Oeste 22 Oeste 0 -- -- 91
2019-04-09 23:00:00 3 10 Oeste 19 Oeste 0 -- -- 91
2019-04-09 22:00:00 2.9 8 Oeste 23 Oeste 0 -- -- 93
2019-04-09 21:00:00 3.1 16 Oeste 36 Oeste 0 -- -- 91
2019-04-09 20:00:00 3.5 22 Oeste 41 Oeste 0.4 -- -- 91
2019-04-09 19:00:00 1.4 12 Oeste 44 Oeste 3 -- -- 95
2019-04-09 18:00:00 5.1 15 Oeste 41 Oeste 0 -- -- 84
2019-04-09 17:00:00 6.1 22 Oeste 38 Oeste 0.2 -- -- 77
2019-04-09 16:00:00 6.9 25 Oeste 44 Oeste 0 -- -- 75
2019-04-09 15:00:00 7.9 21 Oeste 46 Oeste 0 -- -- 65
2019-04-09 14:00:00 8.7 26 Oeste 43 Sudoeste 0 -- -- 61
2019-04-09 13:00:00 7.6 25 Oeste 44 Sudoeste 0 -- -- 64
2019-04-09 12:00:00 6.2 20 Oeste 34 Oeste 0 -- -- 69
2019-04-09 11:00:00 5.4 22 Oeste 35 Oeste 0 -- -- 74
2019-04-09 10:00:00 4.2 13 Oeste 30 Oeste 0 -- -- 86
2019-04-09 09:00:00 3.2 8 Noroeste 18 Oeste 0 -- -- 94
2019-04-09 08:00:00 2 6 Noroeste 15 Oeste 0 -- -- 94
2019-04-09 07:00:00 1.5 9 Oeste 20 Sudoeste 0 -- -- 93
2019-04-09 06:00:00 1.3 5 Noroeste 13 Oeste 0.2 -- -- 94
2019-04-09 05:00:00 2 8 Noroeste 14 Oeste 0 -- -- 95
2019-04-09 04:00:00 1.7 6 Oeste 18 Oeste 0.6 -- -- 95
2019-04-09 03:00:00 1.6 12 Oeste 27 Oeste 1 -- -- 93
2019-04-09 02:00:00 3.3 15 Oeste 27 Oeste 0 -- -- 89
2019-04-09 01:00:00 3.3 14 Oeste 25 Oeste 0 -- -- 87
2019-04-09 00:00:00 3.6 12 Noroeste 28 Noroeste 0 -- -- 86
2019-04-08 23:00:00 5.5 13 Noroeste 28 Noroeste 0 -- -- 84
2019-04-08 22:00:00 4 5 Oeste 12 Oeste 0 -- -- 88
2019-04-08 21:00:00 7 6 Noroeste 24 Noroeste 0 -- -- 77
2019-04-08 20:00:00 10.6 18 Oeste 35 Oeste 0 -- -- 50
2019-04-08 19:00:00 11.2 12 Noroeste 25 Oeste 0 -- -- 65
2019-04-08 18:00:00 10.9 15 Oeste 40 Oeste 0 -- -- 65
2019-04-08 17:00:00 10.8 21 Oeste 37 Oeste 0 -- -- 61
2019-04-08 16:00:00 11.5 21 Oeste 51 Oeste 0 -- -- 63
2019-04-08 15:00:00 11.6 25 Oeste 43 Oeste 0.2 -- -- 63
2019-04-08 14:00:00 10.4 17 Oeste 47 Oeste 0 -- -- 70
2019-04-08 13:00:00 9.6 22 Oeste 46 Oeste 0 -- -- 73
2019-04-08 12:00:00 8.8 21 Oeste 41 Oeste 0 -- -- 77
2019-04-08 11:00:00 7.6 21 Oeste 38 Oeste 0.2 -- -- 85
2019-04-08 10:00:00 6.5 24 Oeste 44 Oeste 0.2 -- -- 88
2019-04-08 09:00:00 6.6 18 Oeste 33 Oeste 0 -- -- 86
2019-04-08 08:00:00 5.8 17 Oeste 30 Oeste 0 -- -- 86
2019-04-08 07:00:00 5.6 11 Oeste 19 Oeste 0 -- -- 90
2019-04-08 06:00:00 5.3 9 Oeste 17 Oeste 0 -- -- 90
2019-04-08 05:00:00 5.2 5 Oeste 17 Oeste 0 -- -- 89
2019-04-08 04:00:00 3.9 2 Norte 10 Oeste 0 -- -- 90
2019-04-08 03:00:00 4 4 Sudoeste 15 Sudoeste 0 -- -- 88
2019-04-08 02:00:00 3.8 6 Sudoeste 12 Sudoeste 0.2 -- -- 88
2019-04-08 01:00:00 3.9 8 Sudoeste 18 Sudoeste 0.2 -- -- 86
2019-04-08 00:00:00 3.9 8 Oeste 27 Oeste 0 -- -- 86
2019-04-07 23:00:00 4.5 12 Oeste 30 Sudoeste 0 -- -- 80
2019-04-07 22:00:00 5.4 9 Oeste 22 Oeste 0 -- -- 62
2019-04-07 21:00:00 6.1 7 Oeste 29 Oeste 0 -- -- 58
2019-04-07 20:00:00 7.1 17 Oeste 33 Oeste 0 -- -- 55
2019-04-07 19:00:00 9.1 16 Oeste 36 Oeste 0 -- -- 46
2019-04-07 18:00:00 8.5 19 Oeste 36 Oeste 0 -- -- 43
2019-04-07 17:00:00 8.9 20 Oeste 37 Oeste 0 -- -- 50
2019-04-07 16:00:00 7.2 19 Oeste 39 Oeste 0 -- -- 53
2019-04-07 15:00:00 5.9 20 Oeste 40 Oeste 0 -- -- 64
2019-04-07 14:00:00 5.4 15 Noroeste 36 Oeste 0 -- -- 61
2019-04-07 13:00:00 4.9 20 Noroeste 38 Noroeste 0 -- -- 63
2019-04-07 12:00:00 3.2 20 Oeste 34 Oeste 0 -- -- 74
2019-04-07 11:00:00 2 23 Oeste 38 Oeste 0 -- -- 83
2019-04-07 10:00:00 1.9 19 Oeste 39 Oeste 0 -- -- 83
2019-04-07 09:00:00 1.2 21 Oeste 38 Oeste 0 -- -- 89
2019-04-07 08:00:00 0.9 21 Oeste 38 Oeste 0 -- -- 92
2019-04-07 07:00:00 0.9 22 Oeste 36 Noroeste 0 -- -- 90
2019-04-07 06:00:00 0.8 19 Oeste 42 Oeste 0 -- -- 91
2019-04-07 05:00:00 1.1 22 Oeste 41 Oeste 0 -- -- 88
2019-04-07 04:00:00 1.1 18 Oeste 27 Oeste 0 -- -- 89
2019-04-07 03:00:00 1.4 11 Oeste 27 Oeste 0.2 -- -- 90
2019-04-07 02:00:00 1.4 14 Oeste 24 Oeste 0 -- -- 91
2019-04-07 01:00:00 1.1 10 Oeste 23 Oeste 0.2 -- -- 93
2019-04-07 00:00:00 1 15 Oeste 34 Oeste 0.2 -- -- 93
2019-04-06 23:00:00 1.4 10 Sudoeste 21 Sudoeste 0.2 -- -- 89
2019-04-06 22:00:00 1.2 12 Oeste 26 Oeste 0.4 -- -- 91
2019-04-06 21:00:00 1.1 9 Oeste 33 Sudoeste 0.8 -- -- 96
2019-04-06 20:00:00 1.4 7 Sudoeste 30 Sudoeste 1.6 -- -- 98
2019-04-06 19:00:00 0.9 6 Oeste 45 Oeste 0.6 -- -- 97
2019-04-06 18:00:00 3.4 27 Oeste 46 Oeste 0 -- -- 79
2019-04-06 17:00:00 6.1 26 Oeste 45 Oeste 0 -- -- 64
2019-04-06 16:00:00 4.2 17 Sudoeste 47 Oeste 0 -- -- 78
2019-04-06 15:00:00 5.7 28 Oeste 48 Oeste 0 -- -- 65
2019-04-06 14:00:00 5.2 23 Oeste 45 Oeste 0 -- -- 69
2019-04-06 13:00:00 4.1 25 Oeste 51 Sudoeste 0.2 -- -- 72
2019-04-06 12:00:00 3.2 26 Oeste 49 Oeste 0 -- -- 77
2019-04-06 11:00:00 2 28 Oeste 48 Oeste 0.8 -- -- 80
2019-04-06 10:00:00 2 22 Oeste 43 Oeste 0.6 -- -- 82
2019-04-06 09:00:00 1.1 18 Oeste 32 Oeste 0 -- -- 87
2019-04-06 08:00:00 0.5 17 Oeste 28 Oeste 0 -- -- 92
2019-04-06 07:00:00 0.4 15 Oeste 32 Oeste 0 -- -- 91
2019-04-06 06:00:00 0.4 18 Oeste 31 Oeste 0 -- -- 94
2019-04-06 05:00:00 0.8 15 Oeste 30 Oeste 0 -- -- 91
2019-04-06 04:00:00 0.6 12 Oeste 27 Oeste 0 -- -- 89
2019-04-06 03:00:00 0.5 12 Oeste 29 Oeste 0 -- -- 89
2019-04-06 02:00:00 0.3 12 Oeste 26 Oeste 0.2 -- -- 92
2019-04-06 01:00:00 0.7 15 Oeste 32 Oeste 0.4 -- -- 97
2019-04-06 00:00:00 0.5 17 Oeste 35 Oeste 0.6 -- -- 98
2019-04-05 23:00:00 0.3 11 Oeste 31 Oeste 0.4 -- -- 98
2019-04-05 22:00:00 0.2 19 Oeste 45 Oeste 0.4 -- -- 97
2019-04-05 21:00:00 0.7 23 Oeste 42 Oeste 1.2 -- -- 93
2019-04-05 20:00:00 5.1 12 Oeste 25 Sudoeste 0 -- -- 71
2019-04-05 19:00:00 6 7 Sudoeste 18 Sudoeste 0 -- -- 71
2019-04-05 18:00:00 4 7 Sudoeste 39 Oeste 0.2 -- -- 86
2019-04-05 17:00:00 7.3 14 Sudoeste 32 Sudoeste 0 -- -- 61
2019-04-05 16:00:00 6.5 14 Sudoeste 30 Sur 0 -- -- 64
2019-04-05 15:00:00 6.9 13 Sur 27 Sudoeste 0 -- -- 66
2019-04-05 14:00:00 8.5 13 Sur 25 Sudoeste 0 -- -- 60
2019-04-05 13:00:00 7 10 Sur 26 Sudoeste 0 -- -- 61
2019-04-05 12:00:00 6.8 17 Sudoeste 37 Sudoeste 0 -- -- 62
2019-04-05 11:00:00 7.7 19 Sudoeste 35 Sudoeste 0 -- -- 60
2019-04-05 10:00:00 5.8 20 Sudoeste 32 Sudoeste 0 -- -- 64
2019-04-05 09:00:00 2.8 3 Sur 16 Sudoeste 0 -- -- 75
2019-04-05 08:00:00 2.7 11 Sudoeste 22 Sudoeste 0 -- -- 74
2019-04-05 07:00:00 2.9 5 Sudoeste 30 Sudoeste 0 -- -- 73
2019-04-05 06:00:00 4.4 13 Sudoeste 30 Sudoeste 0 -- -- 66
2019-04-05 05:00:00 5.1 9 Sudoeste 21 Sudoeste 0 -- -- 69
2019-04-05 04:00:00 5 10 Sur 32 Sur 0 -- -- 69
2019-04-05 03:00:00 5.2 18 Sur 32 Sur 0 -- -- 58
2019-04-05 02:00:00 4.9 10 Sur 22 Sur 0 -- -- 45
2019-04-05 01:00:00 0.6 0 Calma 4 Este 0 -- -- 70
2019-04-05 00:00:00 3.3 3 Sudeste 12 Sur 0 -- -- 54
2019-04-04 23:00:00 4.7 8 Sur 13 Sur 0 -- -- 42
2019-04-04 22:00:00 4.1 0 Calma 11 Oeste 0 -- -- 52
2019-04-04 21:00:00 6.1 6 Oeste 12 Oeste 0 -- -- 45
2019-04-04 20:00:00 8.2 6 Oeste 17 Oeste 0 -- -- 35
2019-04-04 19:00:00 10.7 8 Sur 15 Este 0 -- -- 39
2019-04-04 18:00:00 9.4 8 Sur 22 Sur 0 -- -- 39
2019-04-04 17:00:00 11.3 12 Sudoeste 29 Sudoeste 0 -- -- 32
2019-04-04 16:00:00 10.1 5 Noroeste 27 Oeste 0 -- -- 35
2019-04-04 15:00:00 8.1 11 Noroeste 26 Oeste 0 -- -- 37
2019-04-04 14:00:00 7.6 8 Sudoeste 23 Noroeste 0 -- -- 41
2019-04-04 13:00:00 6.4 8 Noroeste 20 Noroeste 0 -- -- 45
2019-04-04 12:00:00 4.7 8 Oeste 21 Oeste 0 -- -- 53
2019-04-04 11:00:00 2.8 10 Noroeste 26 Oeste 0 -- -- 60
2019-04-04 10:00:00 0.8 14 Oeste 30 Noroeste 0 -- -- 66
2019-04-04 09:00:00 -0.8 15 Oeste 29 Oeste 0 -- -- 72
2019-04-04 08:00:00 -2.5 9 Oeste 18 Noroeste 0 -- -- 78
2019-04-04 07:00:00 -2 14 Oeste 21 Oeste 0 -- -- 78
2019-04-04 06:00:00 -1.4 9 Oeste 18 Oeste 0 -- -- 74
2019-04-04 05:00:00 -0.7 10 Noroeste 17 Oeste 0 -- -- 74
2019-04-04 04:00:00 -1 6 Oeste 13 Oeste 0 -- -- 83
2019-04-04 03:00:00 -0.7 6 Oeste 11 Oeste 0 -- -- 87
2019-04-04 02:00:00 -1.8 2 Oeste 7 Oeste 0 -- -- 91
2019-04-04 01:00:00 0.1 3 Noroeste 17 Nordeste 0 -- -- 85
2019-04-04 00:00:00 1 3 Norte 9 Noroeste 0 -- -- 90
2019-04-03 23:00:00 0.5 2 Norte 21 Norte 0 -- -- 93
2019-04-03 22:00:00 0.5 5 Este 19 Nordeste 0 -- -- 95
2019-04-03 21:00:00 1.7 12 Nordeste 28 Norte 0.2 -- -- 92
2019-04-03 20:00:00 7.2 11 Noroeste 28 Noroeste 0 -- -- 48
2019-04-03 19:00:00 6.2 16 Noroeste 30 Oeste 0 -- -- 50
2019-04-03 18:00:00 5.4 11 Noroeste 22 Noroeste 0 -- -- 65
2019-04-03 17:00:00 4.6 3 Noroeste 10 Norte 0.2 -- -- 86
2019-04-03 16:00:00 3.7 5 Noroeste 27 Norte 0.4 -- -- 89
2019-04-03 15:00:00 5.8 14 Norte 27 Norte 0 -- -- 81
2019-04-03 14:00:00 6.6 12 Norte 29 Noroeste 0 -- -- 80
2019-04-03 13:00:00 9.3 18 Noroeste 40 Oeste 0 -- -- 63
2019-04-03 12:00:00 9.3 12 Oeste 22 Noroeste 0 -- -- 67
2019-04-03 11:00:00 9.5 14 Oeste 28 Oeste 0 -- -- 63
2019-04-03 10:00:00 8.5 11 Sudoeste 20 Sudoeste 0 -- -- 67
2019-04-03 09:00:00 6.9 8 Sudoeste 18 Sudoeste 0 -- -- 75
2019-04-03 08:00:00 4.3 0 Calma 5 Noroeste 0 -- -- 92
2019-04-03 07:00:00 4.5 0 Calma 11 Oeste 0 -- -- 89
2019-04-03 06:00:00 5.3 5 Oeste 9 Oeste 0 -- -- 89
2019-04-03 05:00:00 4.9 4 Oeste 10 Oeste 0 -- -- 90
2019-04-03 04:00:00 4.8 4 Oeste 20 Sudoeste 0 -- -- 87
2019-04-03 03:00:00 7.4 12 Oeste 27 Oeste 0 -- -- 77
2019-04-03 02:00:00 5.6 6 Oeste 12 Oeste 0 -- -- 84
2019-04-03 01:00:00 7.3 8 Oeste 26 Oeste 0 -- -- 77
2019-04-03 00:00:00 7 10 Sudoeste 19 Oeste 0 -- -- 77
2019-04-02 23:00:00 7.1 7 Oeste 29 Oeste 0 -- -- 81
2019-04-02 22:00:00 7.1 6 Oeste 15 Oeste 0 -- -- 79
2019-04-02 21:00:00 6.6 2 Sudeste 12 Sur 0 -- -- 88
2019-04-02 20:00:00 9.9 6 Sudoeste 19 Oeste 0 -- -- 65
2019-04-02 19:00:00 8.8 5 Norte 30 Noroeste 0 -- -- 82
2019-04-02 18:00:00 10.6 17 Noroeste 32 Noroeste 0 -- -- 68
2019-04-02 17:00:00 13.7 5 Oeste 23 Oeste 0 -- -- 50
2019-04-02 16:00:00 13.8 5 Oeste 17 Sur 0 -- -- 51
2019-04-02 15:00:00 11.6 6 Norte 27 Norte 0 -- -- 53
2019-04-02 14:00:00 12 6 Norte 18 Noroeste 0 -- -- 56
2019-04-02 13:00:00 11.6 5 Nordeste 18 Norte 0 -- -- 65
2019-04-02 12:00:00 12.8 8 Oeste 17 Oeste 0 -- -- 65
2019-04-02 11:00:00 10.3 10 Oeste 18 Oeste 0 -- -- 68
2019-04-02 10:00:00 8.7 8 Sudoeste 17 Sudoeste 0 -- -- 78
2019-04-02 09:00:00 5 10 Sudoeste 17 Sudoeste 0 -- -- 91
2019-04-02 08:00:00 4.8 4 Sur 27 Sudoeste 3 -- -- 91
2019-04-02 07:00:00 5.1 13 Oeste 25 Oeste 3 -- -- 94
2019-04-02 06:00:00 6.2 13 Oeste 19 Oeste 0 -- -- 87
2019-04-02 05:00:00 5.6 6 Oeste 11 Oeste 0 -- -- 94
2019-04-02 04:00:00 5.1 5 Oeste 10 Oeste 0 -- -- 94
2019-04-02 03:00:00 6.1 8 Oeste 14 Oeste 0 -- -- 93
2019-04-02 02:00:00 6.8 6 Oeste 12 Oeste 0 -- -- 94
2019-04-02 01:00:00 6.7 3 Sudoeste 8 Sudoeste 0 -- -- 97
2019-04-02 00:00:00 6.6 0 Calma 6 Sudeste 0 -- -- 97
2019-04-01 23:00:00 7.2 5 Sudeste 9 Sudeste 0 -- -- 97
2019-04-01 22:00:00 7.3 4 Sudeste 8 Sudeste 0 -- -- 96
2019-04-01 21:00:00 7.6 5 Este 12 Este 0 -- -- 94
2019-04-01 20:00:00 8.3 3 Oeste 9 Oeste 0.2 -- -- 90
2019-04-01 19:00:00 8.1 3 Oeste 12 Oeste 1.6 -- -- 93
2019-04-01 18:00:00 7.9 2 Norte 14 Noroeste 1.4 -- -- 93
2019-04-01 17:00:00 8.4 6 Norte 15 Nordeste 0 -- -- 88
2019-04-01 16:00:00 10.2 8 Nordeste 19 Noroeste 0.6 -- -- 83
2019-04-01 15:00:00 8.6 12 Noroeste 26 Oeste 0.2 -- -- 87
2019-04-01 14:00:00 9.3 12 Este 18 Este 0 -- -- 87
2019-04-01 13:00:00 8.6 12 Este 17 Este 0 -- -- 91
2019-04-01 12:00:00 7.7 10 Este 15 Este 0 -- -- 95
2019-04-01 11:00:00 6.8 5 Sudeste 10 Este 0 -- -- 97
2019-04-01 10:00:00 5.8 5 Este 10 Este 0.2 -- -- 98
2019-04-01 09:00:00 5 4 Sudeste 8 Este 0.2 -- -- 98
2019-04-01 08:00:00 4.7 6 Este 9 Este 0.2 -- -- 98
2019-04-01 07:00:00 4.8 3 Este 5 Sudeste 0.4 -- -- 98
2019-04-01 06:00:00 4.8 3 Sudeste 4 Este 0 -- -- 98
2019-04-01 05:00:00 4.8 0 Calma 5 Este 0.2 -- -- 98
2019-04-01 04:00:00 4.9 4 Este 8 Este 0.2 -- -- 97
2019-04-01 03:00:00 4.7 4 Este 10 Este 0.2 -- -- 97
2019-04-01 02:00:00 4.7 5 Nordeste 8 Nordeste 0.2 -- -- 97
2019-04-01 01:00:00 4.5 3 Este 9 Este 0.2 -- -- 96
2019-04-01 00:00:00 4.5 5 Este 15 Este 0.4 -- -- 96
2019-03-31 23:00:00 4.5 14 Este 20 Este 0 -- -- 95
2019-03-31 22:00:00 4.7 13 Este 22 Este 0.2 -- -- 95
2019-03-31 21:00:00 4.8 8 Este 15 Sudeste 0.8 -- -- 94
2019-03-31 20:00:00 4.8 3 Sudeste 9 Sudeste 0.6 -- -- 93
2019-03-31 19:00:00 4.8 6 Sudeste 15 Sudeste 1.2 -- -- 93
2019-03-31 18:00:00 5 9 Este 19 Este 1.4 -- -- 92
2019-03-31 17:00:00 5.1 13 Este 23 Este 2.4 -- -- 93
2019-03-31 16:00:00 5.3 9 Este 18 Nordeste 3.8 -- -- 94
2019-03-31 15:00:00 5.3 9 Este 23 Este 0.8 -- -- 93
2019-03-31 14:00:00 5.8 17 Este 24 Este 0.6 -- -- 93
2019-03-31 13:00:00 7 11 Este 16 Este 0 -- -- 85
2019-03-31 12:00:00 6.5 4 Sudeste 12 Este 0 -- -- 82
2019-03-31 11:00:00 6 6 Este 14 Este 0 -- -- 76
2019-03-31 10:00:00 5.5 7 Sudeste 15 Este 0 -- -- 73
2019-03-31 09:00:00 3.9 0 Calma 3 Norte 0 -- -- 82
2019-03-31 08:00:00 2.5 2 Este 5 Oeste 0 -- -- 84
2019-03-31 07:00:00 2.5 6 Oeste 8 Oeste 0 -- -- 84
2019-03-31 06:00:00 1.9 0 Calma 5 Norte 0 -- -- 89
2019-03-31 05:00:00 1.6 0 Calma 6 Oeste 0 -- -- 88
2019-03-31 03:00:00 1.7 3 Sur 9 Sudeste 0 -- -- 92
2019-03-31 01:00:00 2.5 5 Sudeste 10 Sudeste 0 -- -- 89
2019-03-31 00:00:00 3.5 0 Calma 14 Norte 0 -- -- 84
2019-03-30 23:00:00 4.6 3 Sur 9 Nordeste 0 -- -- 76
2019-03-30 22:00:00 6.6 5 Sudeste 24 Sudeste 0 -- -- 72
2019-03-30 21:00:00 8.6 15 Sudeste 27 Sudeste 0 -- -- 65
2019-03-30 20:00:00 9.6 18 Este 34 Este 0 -- -- 45
2019-03-30 19:00:00 11.4 18 Este 31 Este 0 -- -- 39
2019-03-30 18:00:00 13.8 5 Este 20 Este 0 -- -- 31
2019-03-30 17:00:00 15.4 12 Este 22 Sudeste 0 -- -- 28
2019-03-30 16:00:00 14.7 11 Este 23 Este 0 -- -- 28
2019-03-30 15:00:00 15.7 8 Nordeste 26 Este 0 -- -- 26
2019-03-30 14:00:00 14.6 14 Este 24 Este 0 -- -- 26
2019-03-30 13:00:00 13.5 15 Sudeste 28 Este 0 -- -- 27
2019-03-30 12:00:00 12.5 15 Este 22 Este 0 -- -- 32
2019-03-30 11:00:00 10.6 10 Este 20 Este 0 -- -- 39
2019-03-30 10:00:00 9.6 10 Este 17 Este 0 -- -- 43
2019-03-30 09:00:00 7.4 4 Noroeste 7 Noroeste 0 -- -- 43
2019-03-30 08:00:00 1.8 5 Oeste 12 Oeste 0 -- -- 57
2019-03-30 07:00:00 -1 5 Oeste 12 Oeste 0 -- -- 66
2019-03-30 06:00:00 -1.8 3 Oeste 10 Sudoeste 0 -- -- 69
2019-03-30 05:00:00 -1.9 4 Oeste 8 Oeste 0 -- -- 73
2019-03-30 04:00:00 -1.6 0 Calma 8 Oeste 0 -- -- 72
2019-03-30 03:00:00 -1 4 Oeste 8 Oeste 0 -- -- 72
2019-03-30 02:00:00 0.2 5 Oeste 9 Oeste 0 -- -- 71
2019-03-30 01:00:00 1.9 0 Calma 6 Sur 0 -- -- 64
2019-03-30 00:00:00 4 4 Sudoeste 12 Sudoeste 0 -- -- 59
2019-03-29 23:00:00 4.8 5 Sur 10 Sur 0 -- -- 61
2019-03-29 22:00:00 5.6 4 Sur 9 Sur 0 -- -- 58
2019-03-29 21:00:00 6.9 0 Calma 14 Sur 0 -- -- 51
2019-03-29 20:00:00 8.8 4 Sudeste 24 Sudeste 0 -- -- 43
2019-03-29 19:00:00 11 14 Sur 37 Sudeste 0 -- -- 37
2019-03-29 18:00:00 13.8 18 Sudeste 36 Sudeste 0 -- -- 32
2019-03-29 17:00:00 14.7 22 Sudeste 42 Sudeste 0 -- -- 29
2019-03-29 16:00:00 15.2 21 Sudeste 38 Sudeste 0 -- -- 28
2019-03-29 15:00:00 15.4 18 Sudeste 36 Sudeste 0 -- -- 28
2019-03-29 14:00:00 14.5 16 Sudeste 34 Sudeste 0 -- -- 26
2019-03-29 13:00:00 14.1 20 Sudeste 34 Sudeste 0 -- -- 27
2019-03-29 12:00:00 13 19 Sudeste 33 Sudeste 0 -- -- 32
2019-03-29 11:00:00 11.9 18 Sudeste 35 Sudeste 0 -- -- 32
2019-03-29 10:00:00 10.5 17 Sudeste 27 Sudeste 0 -- -- 34
2019-03-29 09:00:00 8.7 10 Sudeste 23 Sudeste 0 -- -- 40
2019-03-29 08:00:00 2.9 0 Calma 4 Oeste 0 -- -- 63
2019-03-29 07:00:00 -2.3 0 Calma 9 Oeste 0 -- -- 75
2019-03-29 06:00:00 -1.9 5 Oeste 10 Oeste 0 -- -- 74
2019-03-29 05:00:00 0 7 Oeste 10 Oeste 0 -- -- 67
2019-03-29 04:00:00 -0.1 3 Oeste 11 Oeste 0 -- -- 68
2019-03-29 03:00:00 -0.2 5 Oeste 12 Oeste 0 -- -- 69
2019-03-29 02:00:00 -0.2 7 Oeste 10 Oeste 0 -- -- 72
2019-03-29 01:00:00 2.2 0 Calma 6 Nordeste 0 -- -- 62
2019-03-29 00:00:00 1.9 0 Calma 10 Oeste 0 -- -- 64
2019-03-28 23:00:00 2 4 Oeste 12 Sudeste 0 -- -- 65
2019-03-28 22:00:00 5.5 5 Este 19 Este 0 -- -- 56
2019-03-28 21:00:00 8 12 Este 24 Este 0 -- -- 46
2019-03-28 20:00:00 9.7 11 Nordeste 18 Este 0 -- -- 43
2019-03-28 19:00:00 13.9 10 Nordeste 18 Nordeste 0 -- -- 27
2019-03-28 18:00:00 15.2 10 Este 21 Este 0 -- -- 25
2019-03-28 17:00:00 16 13 Este 24 Este 0 -- -- 23
2019-03-28 16:00:00 15.8 14 Este 26 Nordeste 0 -- -- 23
2019-03-28 15:00:00 15.8 11 Este 22 Este 0 -- -- 22
2019-03-28 14:00:00 15.3 12 Este 23 Sudeste 0 -- -- 24
2019-03-28 13:00:00 14.4 4 Norte 15 Nordeste 0 -- -- 27
2019-03-28 12:00:00 12.9 10 Sudeste 18 Este 0 -- -- 31
2019-03-28 11:00:00 12.1 6 Sudeste 14 Este 0 -- -- 32
2019-03-28 10:00:00 9.8 5 Sudeste 11 Sudeste 0 -- -- 37
2019-03-28 09:00:00 8.3 3 Este 6 Este 0 -- -- 38
2019-03-28 08:00:00 1.7 0 Calma 14 Oeste 0 -- -- 53
2019-03-28 07:00:00 -2 8 Oeste 12 Oeste 0 -- -- 62
2019-03-28 06:00:00 -1.7 6 Oeste 11 Oeste 0 -- -- 60
2019-03-28 05:00:00 -1.1 7 Oeste 12 Oeste 0 -- -- 58
2019-03-28 04:00:00 -1.3 8 Oeste 12 Sudoeste 0 -- -- 60
2019-03-28 03:00:00 -1.3 4 Oeste 10 Oeste 0 -- -- 60
2019-03-28 02:00:00 -1.5 8 Oeste 10 Oeste 0 -- -- 60
2019-03-28 01:00:00 -0.4 2 Sudoeste 9 Oeste 0 -- -- 54
2019-03-28 00:00:00 0.9 0 Calma 5 Este 0 -- -- 49
2019-03-27 23:00:00 1.8 2 Este 6 Sur 0 -- -- 45
2019-03-27 22:00:00 3.7 0 Calma 8 Oeste 0 -- -- 39
2019-03-27 21:00:00 2.9 6 Oeste 8 Oeste 0 -- -- 38
2019-03-27 20:00:00 6.2 0 Calma 15 Nordeste 0 -- -- 32
2019-03-27 19:00:00 12.4 8 Nordeste 18 Nordeste 0 -- -- 22
2019-03-27 18:00:00 14.7 14 Nordeste 23 Nordeste 0 -- -- 20
2019-03-27 17:00:00 15.3 12 Nordeste 29 Nordeste 0 -- -- 20
2019-03-27 16:00:00 15.4 10 Nordeste 23 Norte 0 -- -- 23
2019-03-27 15:00:00 14.7 12 Nordeste 24 Sudeste 0 -- -- 25
2019-03-27 14:00:00 13.2 9 Norte 23 Nordeste 0 -- -- 25
2019-03-27 13:00:00 12.3 8 Norte 18 Norte 0 -- -- 31
2019-03-27 12:00:00 11.1 8 Norte 20 Nordeste 0 -- -- 36
2019-03-27 11:00:00 9.6 6 Este 14 Este 0 -- -- 38
2019-03-27 10:00:00 7.8 6 Sudeste 13 Este 0 -- -- 44
2019-03-27 09:00:00 5.2 7 Sudeste 11 Sudeste 0 -- -- 50
2019-03-27 08:00:00 -0.3 0 Calma 5 Oeste 0 -- -- 70
2019-03-27 07:00:00 -4.7 3 Oeste 5 Oeste 0 -- -- 80
2019-03-27 06:00:00 -4.6 0 Calma 5 Oeste 0 -- -- 72
2019-03-27 05:00:00 -3.8 2 Oeste 9 Oeste 0 -- -- 71
2019-03-27 04:00:00 -2.4 7 Oeste 10 Oeste 0 -- -- 68
2019-03-27 03:00:00 -2.4 2 Oeste 7 Oeste 0 -- -- 66
2019-03-27 02:00:00 -1.6 2 Oeste 10 Oeste 0 -- -- 54
2019-03-27 01:00:00 -1.2 0 Calma 5 Este 0 -- -- 53
2019-03-27 00:00:00 -0.7 0 Calma 4 Sudeste 0 -- -- 47
2019-03-26 23:00:00 0 0 Calma 7 Oeste 0 -- -- 44
2019-03-26 22:00:00 2.5 5 Oeste 8 Oeste 0 -- -- 36
2019-03-26 21:00:00 2.8 3 Oeste 9 Oeste 0 -- -- 36
2019-03-26 20:00:00 7.5 5 Nordeste 23 Nordeste 0 -- -- 27
2019-03-26 19:00:00 12 17 Nordeste 26 Nordeste 0 -- -- 22
2019-03-26 18:00:00 14.7 21 Este 33 Este 0 -- -- 16
2019-03-26 17:00:00 16.1 14 Este 29 Nordeste 0 -- -- 19
2019-03-26 16:00:00 15.4 14 Este 31 Este 0 -- -- 26
2019-03-26 15:00:00 14.1 18 Nordeste 35 Nordeste 0 -- -- 32
2019-03-26 14:00:00 14.2 15 Este 31 Este 0 -- -- 27
2019-03-26 13:00:00 12.5 16 Este 26 Sudeste 0 -- -- 39
2019-03-26 12:00:00 10.3 13 Este 21 Sudeste 0 -- -- 48
2019-03-26 11:00:00 8.6 10 Sudeste 21 Sudeste 0 -- -- 51
2019-03-26 10:00:00 6.2 13 Este 23 Este 0 -- -- 59
2019-03-26 09:00:00 4.4 10 Este 17 Este 0 -- -- 70
2019-03-26 08:00:00 -0.2 0 Calma 2 Este 0 -- -- 84
2019-03-26 07:00:00 -4.2 0 Calma 2 Oeste 0 -- -- 89
2019-03-26 06:00:00 -3.9 2 Oeste 5 Oeste 0 -- -- 90
2019-03-26 05:00:00 -3.7 0 Calma 3 Oeste 0 -- -- 87
2019-03-26 04:00:00 -3.4 2 Oeste 4 Sudoeste 0 -- -- 86
2019-03-26 03:00:00 -3.4 0 Calma 3 Oeste 0 -- -- 85
2019-03-26 02:00:00 -2.6 0 Calma 3 Nordeste 0 -- -- 81
2019-03-26 01:00:00 -2.1 0 Calma 5 Este 0 -- -- 80
2019-03-26 00:00:00 -1.3 0 Calma 5 Oeste 0 -- -- 75
2019-03-25 23:00:00 -0.3 0 Calma 6 Oeste 0 -- -- 72
2019-03-25 22:00:00 1 4 Oeste 7 Oeste 0 -- -- 66
2019-03-25 21:00:00 3.9 0 Calma 4 Norte 0 -- -- 59
2019-03-25 20:00:00 7.2 4 Nordeste 19 Nordeste 0 -- -- 50
2019-03-25 19:00:00 10.8 10 Nordeste 19 Nordeste 0 -- -- 41
2019-03-25 18:00:00 14.2 12 Nordeste 24 Nordeste 0 -- -- 35
2019-03-25 17:00:00 15.6 13 Nordeste 24 Nordeste 0 -- -- 34
2019-03-25 16:00:00 16.5 12 Nordeste 26 Nordeste 0 -- -- 30
2019-03-25 15:00:00 16.1 12 Nordeste 28 Este 0 -- -- 33
2019-03-25 14:00:00 15.5 10 Nordeste 18 Nordeste 0 -- -- 34
2019-03-25 13:00:00 14.2 9 Nordeste 22 Este 0 -- -- 38
2019-03-25 12:00:00 13 10 Nordeste 21 Nordeste 0 -- -- 41
2019-03-25 11:00:00 12.1 11 Nordeste 18 Nordeste 0 -- -- 43
2019-03-25 10:00:00 11.7 5 Nordeste 12 Este 0 -- -- 45
2019-03-25 09:00:00 10 0 Calma 8 Sudoeste 0 -- -- 48
2019-03-25 08:00:00 2.5 2 Noroeste 17 Oeste 0 -- -- 64
2019-03-25 07:00:00 0.1 7 Oeste 11 Oeste 0 -- -- 70
2019-03-25 06:00:00 1 8 Oeste 13 Oeste 0 -- -- 66
2019-03-25 05:00:00 1.3 0 Calma 11 Oeste 0 -- -- 66
2019-03-25 04:00:00 1.9 9 Oeste 14 Oeste 0 -- -- 65
2019-03-25 03:00:00 2.2 4 Oeste 15 Oeste 0 -- -- 64
2019-03-25 02:00:00 1.2 7 Oeste 8 Oeste 0 -- -- 66
2019-03-25 01:00:00 1.8 0 Calma 8 Oeste 0 -- -- 61
2019-03-25 00:00:00 3.2 4 Oeste 8 Oeste 0 -- -- 57